createdAt,value
2023-06-29T05:46:30.277Z,147072.31
2023-06-29T05:51:35.668Z,147084.84
2023-06-29T05:56:41.260Z,147199.22
2023-06-29T06:01:46.164Z,147264.66
2023-06-29T06:06:49.616Z,147382.84
2023-06-29T06:11:52.991Z,147429.38
2023-06-29T06:16:57.739Z,147601.78
2023-06-29T06:22:04.308Z,147408.03
2023-06-29T06:27:08.248Z,147106.22
2023-06-29T06:32:13.116Z,147445.75
2023-06-29T06:37:18.702Z,147559.00
2023-06-29T06:42:24.128Z,147600.50
2023-06-29T06:47:33.070Z,147648.34
2023-06-29T06:52:36.598Z,147705.00
2023-06-29T06:57:39.949Z,147673.53
2023-06-29T07:02:44.672Z,147652.13
2023-06-29T07:07:54.654Z,147546.44
2023-06-29T07:12:57.992Z,147299.88
2023-06-29T07:18:05.112Z,147326.28
2023-06-29T07:28:17.073Z,147043.41
2023-06-29T07:33:24.371Z,146895.22
2023-06-29T07:38:27.692Z,146808.53
2023-06-29T07:43:30.990Z,146721.91
2023-06-29T07:48:35.797Z,146598.88
2023-06-29T07:53:39.283Z,146531.16
2023-06-29T07:58:42.804Z,146440.81
2023-06-29T08:04:01.395Z,146345.53
2023-06-29T08:09:09.692Z,146322.94
2023-06-29T08:14:13.164Z,146241.47
2023-06-29T08:19:18.274Z,146172.50
2023-06-29T08:24:24.341Z,146166.25
2023-06-29T08:29:27.707Z,146152.50
2023-06-29T08:34:32.583Z,146172.50
2023-06-29T08:39:35.909Z,146148.75
2023-06-29T08:44:41.609Z,146155.00
2023-06-29T08:49:47.741Z,146151.25
2023-06-29T08:54:53.673Z,146177.56
2023-06-29T08:59:57.066Z,146177.56
2023-06-29T09:05:01.828Z,146195.06
2023-06-29T09:10:09.176Z,146222.66
2023-06-29T09:15:15.403Z,146277.81
2023-06-29T09:20:26.200Z,146337.97
2023-06-29T09:25:34.439Z,146330.47
2023-06-29T09:30:39.761Z,146351.78
2023-06-29T09:35:47.890Z,146296.63
2023-06-29T09:40:51.870Z,146386.88
2023-06-29T09:46:01.935Z,146434.56
2023-06-29T09:51:09.855Z,146453.34
2023-06-29T09:56:14.471Z,146531.16
2023-06-29T10:01:20.350Z,146553.75
2023-06-29T10:06:28.137Z,146542.44
2023-06-29T10:11:36.907Z,146474.66
2023-06-29T10:16:42.286Z,146588.88
2023-06-29T10:21:48.022Z,146625.25
2023-06-29T10:26:51.832Z,146603.94
2023-06-29T10:31:57.639Z,146666.69
2023-06-29T10:37:02.359Z,146587.63
2023-06-29T10:42:10.120Z,146590.13
2023-06-29T10:47:27.019Z,146645.34
2023-06-29T10:52:34.033Z,146649.09
2023-06-29T10:57:37.351Z,146672.94
2023-06-29T11:02:41.447Z,146725.66
2023-06-29T11:07:46.841Z,146802.25
2023-06-29T11:12:51.001Z,146785.91
2023-06-29T11:17:54.472Z,146721.91
2023-06-29T11:23:01.698Z,146720.66
2023-06-29T11:28:07.489Z,146670.44
2023-06-29T11:38:36.773Z,146578.84
2023-06-29T11:43:40.148Z,146624.00
2023-06-29T11:48:52.824Z,146473.41
2023-06-29T11:53:57.674Z,146664.16
2023-06-29T11:59:05.553Z,146817.28
2023-06-29T12:04:09.739Z,146911.50
2023-06-29T12:09:14.697Z,146794.69
2023-06-29T12:14:17.993Z,146637.81
2023-06-29T12:19:23.734Z,146588.88
2023-06-29T12:24:28.495Z,146588.88
2023-06-29T12:29:31.806Z,146595.13
2023-06-29T12:34:35.140Z,146684.22
2023-06-29T12:39:41.884Z,146578.84
2023-06-29T12:44:45.182Z,146624.00
2023-06-29T12:49:51.902Z,146522.41
2023-06-29T12:54:57.205Z,146356.78
2023-06-29T13:00:01.413Z,146349.28
2023-06-29T13:05:05.355Z,146499.81
2023-06-29T13:10:12.923Z,146548.75
2023-06-29T13:15:16.261Z,146639.06
2023-06-29T13:20:22.116Z,146573.84
2023-06-29T13:25:26.861Z,146603.94
2023-06-29T13:30:30.263Z,146666.69
2023-06-29T13:35:33.615Z,146772.06
2023-06-29T13:40:38.283Z,146844.91
2023-06-29T13:45:41.585Z,146881.31
2023-06-29T13:50:44.873Z,146917.81
2023-06-29T13:55:51.768Z,146961.75
2023-06-29T14:00:55.065Z,146890.19
2023-06-29T14:06:00.521Z,146880.06
2023-06-29T14:11:07.901Z,146868.78
2023-06-29T14:16:15.295Z,146891.44
2023-06-29T14:21:21.097Z,146838.66
2023-06-29T14:26:25.792Z,146769.56
2023-06-29T14:31:29.343Z,146641.56
2023-06-29T14:36:32.705Z,146641.56
2023-06-29T14:41:51.959Z,146587.63
2023-06-29T14:46:56.440Z,146558.75
2023-06-29T14:52:02.727Z,146701.81
2023-06-29T14:57:07.764Z,146675.44
2023-06-29T15:02:11.153Z,146661.66
2023-06-29T15:07:14.483Z,146656.59
2023-06-29T15:12:19.307Z,146652.84
2023-06-29T15:17:26.126Z,146586.38
2023-06-29T15:22:29.464Z,146555.00
2023-06-29T15:27:36.779Z,146550.00
2023-06-29T15:32:40.158Z,146551.25
2023-06-29T15:37:43.462Z,146468.41
2023-06-29T15:42:50.563Z,146470.91
2023-06-29T15:47:53.896Z,146418.22
2023-06-29T15:52:57.374Z,146378.13
2023-06-29T15:58:02.173Z,146438.31
2023-06-29T16:03:05.708Z,146467.16
2023-06-29T16:08:11.247Z,146523.66
2023-06-29T16:13:16.129Z,146414.47
2023-06-29T16:18:19.675Z,146381.88
2023-06-29T16:23:37.827Z,146321.69
2023-06-29T16:28:46.720Z,146356.78
2023-06-29T16:33:50.059Z,146349.28
2023-06-29T16:38:53.347Z,146290.38
2023-06-29T16:43:58.021Z,146210.13
2023-06-29T16:49:01.924Z,146216.41
2023-06-29T16:54:05.355Z,146200.09
2023-06-29T16:59:12.473Z,146171.25
2023-06-29T17:04:15.965Z,146143.69
2023-06-29T17:09:19.326Z,146138.69
2023-06-29T17:14:24.364Z,146177.56
2023-06-29T17:19:28.176Z,146182.56
2023-06-29T17:24:31.558Z,146139.94
2023-06-29T17:29:36.538Z,146162.50
2023-06-29T17:34:44.573Z,146195.06
2023-06-29T17:39:47.918Z,146155.00
2023-06-29T17:44:52.756Z,146088.63
2023-06-29T17:50:00.367Z,146054.75
2023-06-29T17:55:05.955Z,146028.41
2023-06-29T18:00:12.545Z,146020.88
2023-06-29T18:05:16.494Z,145990.84
2023-06-29T18:10:20.064Z,145967.03
2023-06-29T18:15:26.215Z,145899.44
2023-06-29T18:20:29.826Z,145886.88
2023-06-29T18:25:33.467Z,145886.88
2023-06-29T18:30:38.726Z,145829.31
2023-06-29T18:35:42.335Z,145798.03
2023-06-29T18:40:45.766Z,145821.81
2023-06-29T18:45:51.019Z,145799.28
2023-06-29T18:50:54.746Z,145760.50
2023-06-29T18:56:00.689Z,145744.19
2023-06-29T19:01:05.898Z,145699.19
2023-06-29T19:06:09.350Z,145666.66
2023-06-29T19:11:12.791Z,145671.66
2023-06-29T19:16:20.217Z,145631.59
2023-06-29T19:21:32.314Z,145615.34
2023-06-29T19:26:45.750Z,145597.81
2023-06-29T19:32:13.894Z,145574.06
2023-06-29T19:37:17.353Z,145535.31
2023-06-29T19:42:23.902Z,145491.56
2023-06-29T19:47:28.714Z,145449.03
2023-06-29T19:52:35.463Z,145403.94
2023-06-29T19:57:39.009Z,145366.47
2023-06-29T20:02:43.851Z,145352.75
2023-06-29T20:07:47.314Z,145340.22
2023-06-29T20:12:53.191Z,145313.97
2023-06-29T20:17:58.138Z,145295.25
2023-06-29T20:23:01.706Z,145287.72
2023-06-29T20:28:05.213Z,145294.00
2023-06-29T20:33:10.080Z,145283.97
2023-06-29T20:38:13.508Z,145266.50
2023-06-29T20:43:20.565Z,145225.25
2023-06-29T20:48:25.400Z,145209.03
2023-06-29T20:53:28.695Z,145174.03
2023-06-29T20:58:32.090Z,145159.06
2023-06-29T21:03:39.004Z,145116.56
2023-06-29T21:08:42.812Z,145111.59
2023-06-29T21:13:49.147Z,145111.59
2023-06-29T21:18:54.747Z,145107.84
